Time;durP1;ratioP1;P1;durP2;ratioP2;P2;SDS_P1;SDS_P2;PMS_P1;PMS_P2;Temp;Humidity;BMP_temperature;BMP_pressure;BME280_temperature;BME280_humidity;BME280_pressure;Samples;Min_cycle;Max_cycle;Signal;HPM_P1;HPM_P2
2022/10/03 00:00:28;;;;;;;;;;;;;;;10.66;88.21;98656.84;4953319;28;20383;-75
2022/10/03 00:03:21;;;;;;;;;;;;;;;10.74;88.12;98667.03;4922285;28;19989;-76
2022/10/03 00:05:53;;;;;;;;;;;;;;;10.70;88.11;98674.16;4938017;29;20389;-75
2022/10/03 00:08:27;;;;;;;;;;;;;;;10.71;88.01;98680.41;4933806;29;20349;-75
2022/10/03 00:10:57;;;;;;;;;;;;;;;10.71;87.75;98681.22;4914858;29;19974;-75
2022/10/03 00:13:26;;;;;;;;;;;;;;;10.69;88.01;98674.44;4945384;28;19926;-75
2022/10/03 00:15:55;;;;;;;;;;;;;;;10.66;87.74;98681.28;4937307;28;19934;-75
2022/10/03 00:18:30;;;;;;;;;;;;;;;10.66;88.00;98685.94;4936581;29;19930;-75
2022/10/03 00:21:03;;;;;;;;;;;;;;;10.66;88.00;98686.72;4935507;28;20045;-75
2022/10/03 00:23:36;;;;;;;;;;;;;;;10.66;87.96;98697.59;4930827;29;20350;-76
2022/10/03 00:26:25;;;;;;;;;;;;;;;10.68;87.93;98700.00;4935034;28;19940;-75
2022/10/03 00:31:52;;;;;;;;;;;;;;;10.71;87.71;98704.88;4936511;29;20456;-75
2022/10/03 00:34:24;;;;;;;;;;;;;;;10.74;87.40;98705.09;4911960;28;19933;-75
2022/10/03 00:36:56;;;;;;;;;;;;;;;10.66;87.75;98718.53;4925406;29;19961;-75
2022/10/03 00:39:51;;;;;;;;;;;;;;;10.74;87.65;98724.09;4925876;28;19966;-76
2022/10/03 00:42:47;;;;;;;;;;;;;;;10.77;87.75;98720.00;4939141;29;19927;-75
2022/10/03 00:45:21;;;;;;;;;;;;;;;10.74;87.53;98726.81;4933541;28;19969;-76
2022/10/03 00:48:04;;;;;;;;;;;;;;;10.65;87.72;98728.59;4936511;29;19934;-75
2022/10/03 00:50:38;;;;;;;;;;;;;;;10.73;88.07;98732.56;4918196;29;19934;-74
2022/10/03 00:53:10;;;;;;;;;;;;;;;10.79;87.68;98738.75;4952822;28;19933;-75
2022/10/03 00:55:42;;;;;;;;;;;;;;;10.85;87.41;98730.22;4934920;29;20195;-75
2022/10/03 00:58:15;;;;;;;;;;;;;;;10.85;87.65;98735.66;4933820;28;19937;-75
2022/10/03 01:00:51;;;;;;;;;;;;;;;10.84;87.03;98733.22;4931822;29;20021;-75
2022/10/03 01:03:24;;;;;;;;;;;;;;;10.78;87.29;98737.94;4941886;28;19977;-76
2022/10/03 01:06:01;;;;;;;;;;;;;;;10.74;87.36;98742.31;4948872;28;19926;-75
2022/10/03 01:08:34;;;;;;;;;;;;;;;10.74;87.33;98740.41;4968112;28;20381;-75
2022/10/03 01:11:04;;;;;;;;;;;;;;;10.71;87.52;98742.94;4934305;28;19938;-75
2022/10/03 01:13:35;;;;;;;;;;;;;;;10.67;87.21;98747.31;4919662;29;19933;-76
2022/10/03 01:16:28;;;;;;;;;;;;;;;10.63;87.35;98743.56;4969292;28;19926;-75
2022/10/03 01:19:00;;;;;;;;;;;;;;;10.58;87.64;98738.19;4976214;28;19932;-76
2022/10/03 01:21:34;;;;;;;;;;;;;;;10.56;87.67;98740.41;4953814;28;20441;-75
2022/10/03 01:24:09;;;;;;;;;;;;;;;10.56;87.72;98740.41;4953861;28;19930;-75
2022/10/03 01:26:42;;;;;;;;;;;;;;;10.58;87.73;98743.63;4952365;28;20404;-75
2022/10/03 01:31:58;;;;;;;;;;;;;;;10.59;87.62;98740.59;4967376;28;19926;-75
2022/10/03 01:34:27;;;;;;;;;;;;;;;10.56;87.33;98743.13;4934859;28;19927;-75
2022/10/03 01:37:01;;;;;;;;;;;;;;;10.53;87.51;98738.25;4953632;28;20658;-75
2022/10/03 01:39:32;;;;;;;;;;;;;;;10.48;87.47;98745.34;4951684;28;19927;-75
2022/10/03 01:42:01;;;;;;;;;;;;;;;10.47;87.65;98749.19;4953224;28;19934;-75
2022/10/03 01:44:31;;;;;;;;;;;;;;;10.46;87.55;98744.84;4967768;28;19937;-75
2022/10/03 01:47:05;;;;;;;;;;;;;;;10.46;87.54;98746.75;4968201;28;19978;-75
2022/10/03 01:49:34;;;;;;;;;;;;;;;10.39;87.41;98741.69;4951471;28;19926;-75
2022/10/03 01:52:04;;;;;;;;;;;;;;;10.37;87.61;98749.28;4933533;29;20313;-75
2022/10/03 01:54:34;;;;;;;;;;;;;;;10.43;87.77;98753.56;4950357;28;19935;-75
2022/10/03 01:59:58;;;;;;;;;;;;;;;10.42;87.52;98751.16;4968058;28;19930;-75
2022/10/03 02:02:29;;;;;;;;;;;;;;;10.40;87.40;98754.16;4951195;28;19926;-75
2022/10/03 02:04:59;;;;;;;;;;;;;;;10.40;87.68;98756.88;4950510;28;19932;-75
2022/10/03 02:10:24;;;;;;;;;;;;;;;10.52;87.59;98755.66;4969152;28;20034;-76
2022/10/03 02:12:54;;;;;;;;;;;;;;;10.52;87.46;98758.38;4969180;28;20037;-75
2022/10/03 02:15:26;;;;;;;;;;;;;;;10.50;87.18;98755.97;4928813;29;20411;-75
2022/10/03 02:17:56;;;;;;;;;;;;;;;10.45;87.14;98756.81;4929319;28;19934;-75
2022/10/03 02:20:26;;;;;;;;;;;;;;;10.43;87.07;98759.00;4917653;29;19926;-75
2022/10/03 02:22:56;;;;;;;;;;;;;;;10.42;87.04;98751.94;4954470;28;19933;-75
2022/10/03 02:25:25;;;;;;;;;;;;;;;10.43;86.91;98759.00;4963580;28;19927;-75
2022/10/03 02:28:18;;;;;;;;;;;;;;;10.39;86.96;98762.59;4949051;28;19926;-75
2022/10/03 02:30:56;;;;;;;;;;;;;;;10.37;86.96;98762.06;4950630;28;19926;-75
2022/10/03 02:33:39;;;;;;;;;;;;;;;10.34;87.08;98765.38;4939607;29;19990;-76
2022/10/03 02:36:28;;;;;;;;;;;;;;;10.33;86.97;98775.41;4928417;28;20038;-75
2022/10/03 02:39:03;;;;;;;;;;;;;;;10.25;87.24;98786.91;4947816;28;20033;-75
2022/10/03 02:41:41;;;;;;;;;;;;;;;10.24;87.40;98782.59;4949839;28;19926;-75
2022/10/03 02:44:17;;;;;;;;;;;;;;;10.27;87.16;98787.44;4961133;28;20433;-75
2022/10/03 02:47:02;;;;;;;;;;;;;;;10.27;87.20;98792.84;4917467;28;19927;-75
2022/10/03 02:49:37;;;;;;;;;;;;;;;10.34;87.23;98797.97;4934843;29;19926;-75
2022/10/03 02:52:22;;;;;;;;;;;;;;;10.35;86.89;98799.59;4948645;28;19926;-75
2022/10/03 02:54:56;;;;;;;;;;;;;;;10.30;86.67;98802.34;4962227;28;20334;-75
2022/10/03 02:57:43;;;;;;;;;;;;;;;10.30;86.47;98808.59;4947113;28;19927;-76
2022/10/03 03:03:11;;;;;;;;;;;;;;;10.28;86.61;98818.94;4923738;28;19934;-76
2022/10/03 03:05:58;;;;;;;;;;;;;;;10.28;86.63;98816.22;4950048;28;19926;-75
2022/10/03 03:08:36;;;;;;;;;;;;;;;10.34;86.85;98809.66;4934816;29;19926;-75
2022/10/03 03:11:07;;;;;;;;;;;;;;;10.32;86.66;98822.69;4936950;28;20413;-76
2022/10/03 03:13:47;;;;;;;;;;;;;;;10.29;86.85;98820.56;4933835;29;19930;-75
2022/10/03 03:16:35;;;;;;;;;;;;;;;10.29;86.90;98825.19;4950088;28;19926;-75
2022/10/03 03:19:22;;;;;;;;;;;;;;;10.30;86.77;98824.88;4951862;28;19961;-75
2022/10/03 03:21:51;;;;;;;;;;;;;;;10.23;86.77;98825.22;4971654;28;19934;-75
2022/10/03 03:24:23;;;;;;;;;;;;;;;10.24;86.93;98828.75;4936145;28;19934;-75
2022/10/03 03:26:54;;;;;;;;;;;;;;;10.18;86.75;98824.44;4970536;28;19933;-75
2022/10/03 03:29:26;;;;;;;;;;;;;;;10.17;86.87;98833.66;4973436;28;20025;-75
2022/10/03 03:32:02;;;;;;;;;;;;;;;10.16;86.74;98834.75;4956932;28;20021;-75
2022/10/03 03:34:34;;;;;;;;;;;;;;;10.13;87.06;98838.06;4947382;28;19927;-75
2022/10/03 03:37:05;;;;;;;;;;;;;;;10.15;86.77;98836.66;4953741;28;20025;-75
2022/10/03 03:39:37;;;;;;;;;;;;;;;10.11;86.90;98838.34;4964724;28;20242;-75
2022/10/03 03:42:11;;;;;;;;;;;;;;;10.10;87.07;98841.34;4974136;28;19950;-76
2022/10/03 03:44:47;;;;;;;;;;;;;;;10.09;86.95;98845.97;4937893;29;19961;-76
2022/10/03 03:50:20;;;;;;;;;;;;;;;10.05;86.96;98847.63;4967972;28;20460;-76
2022/10/03 03:52:52;;;;;;;;;;;;;;;10.09;87.13;98843.25;4970222;28;20156;-75
2022/10/03 03:55:30;;;;;;;;;;;;;;;10.12;86.98;98850.00;4953140;28;19931;-76
2022/10/03 03:58:14;;;;;;;;;;;;;;;10.11;86.87;98842.94;4950171;28;19927;-76
2022/10/03 04:00:56;;;;;;;;;;;;;;;10.11;86.68;98842.94;4953087;28;19941;-75
2022/10/03 04:03:26;;;;;;;;;;;;;;;10.09;86.49;98839.72;4952680;28;20393;-76
2022/10/03 04:06:07;;;;;;;;;;;;;;;10.05;86.52;98839.47;4969926;28;20023;-75
2022/10/03 04:08:42;;;;;;;;;;;;;;;10.07;86.67;98844.63;4936689;28;20477;-75
2022/10/03 04:11:39;;;;;;;;;;;;;;;10.05;86.45;98844.09;4940293;29;19926;-75
2022/10/03 04:14:23;;;;;;;;;;;;;;;10.04;86.32;98839.78;4966797;28;19941;-75
2022/10/03 04:19:47;;;;;;;;;;;;;;;10.07;85.82;98839.22;4951025;28;19927;-75
2022/10/03 04:22:21;;;;;;;;;;;;;;;9.97;86.03;98846.34;4949321;28;19933;-75
2022/10/03 04:24:57;;;;;;;;;;;;;;;9.95;86.17;98845.00;4928540;29;19937;-75
2022/10/03 04:27:32;;;;;;;;;;;;;;;9.95;86.02;98853.13;4968422;28;19927;-75
2022/10/03 04:30:03;;;;;;;;;;;;;;;9.89;85.82;98857.78;4937572;28;20095;-75
2022/10/03 04:32:35;;;;;;;;;;;;;;;9.89;86.11;98857.78;4935561;28;19927;-76
2022/10/03 04:35:27;;;;;;;;;;;;;;;9.90;86.05;98847.75;4936814;29;19927;-76
2022/10/03 04:37:59;;;;;;;;;;;;;;;9.88;85.80;98849.94;4968940;28;19941;-76
2022/10/03 04:40:32;;;;;;;;;;;;;;;9.86;85.74;98849.44;4935919;29;19927;-76
2022/10/03 04:43:04;;;;;;;;;;;;;;;9.83;85.80;98850.78;4940829;28;19927;-76
2022/10/03 04:45:36;;;;;;;;;;;;;;;9.82;85.59;98851.88;4934245;29;19958;-76
2022/10/03 04:48:07;;;;;;;;;;;;;;;9.87;85.84;98861.91;4943041;28;19986;-76
2022/10/03 04:50:37;;;;;;;;;;;;;;;9.86;85.98;98854.84;4965722;28;19954;-75
2022/10/03 04:53:24;;;;;;;;;;;;;;;9.92;85.75;98854.53;4957713;28;20032;-76
2022/10/03 04:55:57;;;;;;;;;;;;;;;9.95;85.43;98861.28;4934917;29;19926;-76
2022/10/03 04:58:28;;;;;;;;;;;;;;;9.87;85.47;98860.00;4954214;28;19981;-76
2022/10/03 05:00:59;;;;;;;;;;;;;;;9.96;85.02;98852.06;4959231;28;20057;-75
2022/10/03 05:03:30;;;;;;;;;;;;;;;9.81;85.58;98860.31;4969435;28;19926;-76
2022/10/03 05:05:59;;;;;;;;;;;;;;;9.77;85.79;98860.06;4942870;29;19960;-76
2022/10/03 05:08:33;;;;;;;;;;;;;;;9.87;85.60;98860.00;4963111;28;19927;-76
2022/10/03 05:11:06;;;;;;;;;;;;;;;9.89;85.53;98852.38;4938271;29;20017;-76
2022/10/03 05:14:02;;;;;;;;;;;;;;;9.93;85.22;98850.72;4936228;29;19926;-76
2022/10/03 05:16:35;;;;;;;;;;;;;;;9.89;85.02;98855.06;4918450;29;19933;-76
2022/10/03 05:19:28;;;;;;;;;;;;;;;9.89;85.04;98857.78;4920164;28;19934;-76
2022/10/03 05:21:57;;;;;;;;;;;;;;;9.87;85.06;98860.00;4949341;28;19937;-75
2022/10/03 05:24:26;;;;;;;;;;;;;;;9.82;85.02;98861.94;4935458;29;19930;-75
2022/10/03 05:26:57;;;;;;;;;;;;;;;9.81;85.31;98863.84;4967695;28;19926;-75
2022/10/03 05:29:28;;;;;;;;;;;;;;;9.85;85.40;98877.63;4935380;29;19950;-76
2022/10/03 05:32:01;;;;;;;;;;;;;;;9.92;85.43;98864.56;4944858;28;20013;-76
2022/10/03 05:34:35;;;;;;;;;;;;;;;9.92;85.20;98873.53;4947541;28;19927;-76
2022/10/03 05:37:13;;;;;;;;;;;;;;;10.00;85.21;98879.44;4936196;28;20385;-76
2022/10/03 05:39:42;;;;;;;;;;;;;;;9.89;85.31;98874.06;4958501;28;20025;-76
2022/10/03 05:42:32;;;;;;;;;;;;;;;9.88;85.27;98883.31;4919813;28;20406;-76
2022/10/03 05:45:03;;;;;;;;;;;;;;;10.00;84.89;98879.44;4937317;28;19977;-75
2022/10/03 05:47:57;;;;;;;;;;;;;;;9.83;85.24;98888.78;4938268;29;19934;-76
2022/10/03 05:50:41;;;;;;;;;;;;;;;9.93;85.11;98891.44;4948679;28;20464;-76
2022/10/03 05:53:14;;;;;;;;;;;;;;;9.97;85.07;98891.69;4923001;28;19926;-76
2022/10/03 05:55:46;;;;;;;;;;;;;;;10.06;84.92;98898.09;4961276;28;19930;-76
2022/10/03 05:58:33;;;;;;;;;;;;;;;10.04;84.90;98903.00;4962373;28;20354;-76
2022/10/03 06:01:23;;;;;;;;;;;;;;;10.05;84.40;98903.81;4954117;28;19981;-76
2022/10/03 06:04:15;;;;;;;;;;;;;;;10.06;84.92;98902.72;4907085;28;19934;-76
2022/10/03 06:06:53;;;;;;;;;;;;;;;10.01;84.78;98910.91;4913692;28;20810;-77
2022/10/03 06:09:36;;;;;;;;;;;;;;;9.92;84.85;98911.53;4955860;28;19931;-76
2022/10/03 06:12:06;;;;;;;;;;;;;;;9.90;84.96;98921.03;4941758;28;19934;-76
2022/10/03 06:14:53;;;;;;;;;;;;;;;9.93;85.38;98923.19;4947609;28;19997;-75
2022/10/03 06:17:31;;;;;;;;;;;;;;;9.94;84.99;98920.19;4967952;28;19978;-77
2022/10/03 06:20:51;;;;;;;;;;;;;;;9.92;84.87;98918.88;4949867;28;19926;-77
2022/10/03 06:23:49;;;;;;;;;;;;;;;9.97;84.77;98925.06;4965640;28;20342;-76
2022/10/03 06:27:01;;;;;;;;;;;;;;;9.95;84.54;98926.44;4946815;28;19926;-84
2022/10/03 06:30:02;;;;;;;;;;;;;;;9.88;84.96;98929.47;4901809;28;20404;-74
2022/10/03 06:33:17;;;;;;;;;;;;;;;9.89;85.28;98932.97;4959826;28;19931;-75
2022/10/03 06:36:10;;;;;;;;;;;;;;;9.92;84.94;98940.56;4962058;28;19960;-89
2022/10/03 06:39:17;;;;;;;;;;;;;;;9.88;84.71;98940.31;4955246;28;19930;-76
2022/10/03 06:42:19;;;;;;;;;;;;;;;9.89;84.49;98931.06;4957124;28;20013;-75
2022/10/03 06:45:18;;;;;;;;;;;;;;;9.96;84.92;98942.44;4954892;28;20025;-76
2022/10/03 06:48:10;;;;;;;;;;;;;;;10.01;84.96;98941.56;4936359;28;19926;-76
2022/10/03 06:50:53;;;;;;;;;;;;;;;10.10;84.70;98944.50;4945322;28;20445;-74
2022/10/03 06:53:39;;;;;;;;;;;;;;;10.13;84.56;98946.69;4960998;28;19926;-76
2022/10/03 06:56:22;;;;;;;;;;;;;;;10.04;84.77;98946.47;4967968;28;19950;-76
2022/10/03 06:59:20;;;;;;;;;;;;;;;10.20;84.17;98950.69;4946680;28;19942;-76
2022/10/03 07:02:19;;;;;;;;;;;;;;;10.32;84.18;98942.19;4913773;29;19966;-76
2022/10/03 07:05:10;;;;;;;;;;;;;;;10.15;84.23;98950.72;4903407;29;20021;-75
2022/10/03 07:08:16;;;;;;;;;;;;;;;10.26;83.60;98951.47;4920608;29;19926;-75
2022/10/03 07:10:53;;;;;;;;;;;;;;;10.21;83.11;98941.44;4917264;29;19926;-76
2022/10/03 07:13:50;;;;;;;;;;;;;;;10.25;83.33;98947.16;4948104;28;19986;-75
2022/10/03 07:16:36;;;;;;;;;;;;;;;10.28;83.25;98943.88;4933067;29;19927;-75
2022/10/03 07:19:20;;;;;;;;;;;;;;;10.26;83.19;98942.53;4926651;29;19930;-75
2022/10/03 07:22:04;;;;;;;;;;;;;;;10.30;83.47;98955.25;4929347;29;20022;-76
2022/10/03 07:24:49;;;;;;;;;;;;;;;10.30;83.54;98949.81;4903238;29;19927;-75
2022/10/03 07:27:24;;;;;;;;;;;;;;;10.38;83.33;98951.91;4931296;29;19993;-75
2022/10/03 07:30:04;;;;;;;;;;;;;;;10.40;82.91;98957.91;4934409;29;19986;-75
2022/10/03 07:32:41;;;;;;;;;;;;;;;10.37;82.69;98963.88;4920510;29;19942;-84
2022/10/03 07:38:56;;;;;;;;;;;;;;;10.38;83.18;98954.63;4947000;29;19931;-76
2022/10/03 07:38:57;;;;;;;;;;;;;;;10.46;82.84;98970.34;4952361;28;19942;-74
2022/10/03 07:41:42;;;;;;;;;;;;;;;10.49;82.45;98961.63;4907020;29;19927;-75
2022/10/03 07:44:16;;;;;;;;;;;;;;;10.53;82.58;98971.91;4917311;29;20009;-77
2022/10/03 07:47:09;;;;;;;;;;;;;;;10.63;82.46;98985.41;4952257;28;19927;-76
2022/10/03 07:49:43;;;;;;;;;;;;;;;10.65;82.58;98983.22;4939531;29;19938;-76
2022/10/03 07:52:22;;;;;;;;;;;;;;;10.69;81.81;98987.78;4949389;28;19941;-76
2022/10/03 07:54:54;;;;;;;;;;;;;;;10.78;81.66;98990.72;4947307;28;20037;-76
2022/10/03 07:57:44;;;;;;;;;;;;;;;10.80;81.82;98987.69;4944283;28;19934;-76
2022/10/03 08:00:21;;;;;;;;;;;;;;;10.86;81.58;98990.06;4942916;28;19934;-76
2022/10/03 08:03:11;;;;;;;;;;;;;;;10.91;81.59;98992.75;4951851;28;19937;-77
2022/10/03 08:08:53;;;;;;;;;;;;;;;11.09;81.25;98998.59;4939467;29;19930;-76
2022/10/03 08:11:30;;;;;;;;;;;;;;;11.14;80.85;98998.53;4970838;28;19927;-76
2022/10/03 08:14:08;;;;;;;;;;;;;;;11.20;80.88;99000.91;4963832;28;20018;-76
2022/10/03 08:16:56;;;;;;;;;;;;;;;11.16;80.66;98999.84;4967506;28;19926;-78
2022/10/03 08:19:29;;;;;;;;;;;;;;;11.17;80.71;99000.66;4968901;28;19926;-77
2022/10/03 08:21:58;;;;;;;;;;;;;;;11.01;79.62;98992.66;4955698;29;19935;-80
2022/10/03 08:24:30;;;;;;;;;;;;;;;11.11;80.90;98993.66;4928271;29;19949;-77
2022/10/03 08:27:17;;;;;;;;;;;;;;;11.17;80.42;98996.03;4959204;28;19976;-77
2022/10/03 08:30:02;;;;;;;;;;;;;;;11.14;79.81;99002.06;4950539;28;19930;-75
2022/10/03 08:35:36;;;;;;;;;;;;;;;11.27;79.19;99006.00;4964096;28;20014;-75
2022/10/03 08:38:19;;;;;;;;;;;;;;;11.26;79.30;99004.38;4964270;28;19934;-76
2022/10/03 08:41:09;;;;;;;;;;;;;;;11.36;79.45;99001.53;4936696;28;19937;-76
2022/10/03 08:43:47;;;;;;;;;;;;;;;11.42;77.50;99008.53;4941310;28;19982;-77
2022/10/03 08:46:21;;;;;;;;;;;;;;;11.49;77.02;99006.28;4950977;28;19962;-77
2022/10/03 08:49:08;;;;;;;;;;;;;;;11.65;76.88;99001.44;4951226;28;20246;-77
2022/10/03 08:51:57;;;;;;;;;;;;;;;11.76;76.65;98996.69;4947799;28;20009;-77
2022/10/03 08:54:34;;;;;;;;;;;;;;;11.84;76.62;99014.34;4968652;28;19933;-77
2022/10/03 08:57:19;;;;;;;;;;;;;;;11.88;76.00;99013.47;4967919;28;19931;-77
2022/10/03 08:59:59;;;;;;;;;;;;;;;11.89;75.90;99011.53;4948300;28;19927;-75
2022/10/03 09:02:47;;;;;;;;;;;;;;;11.92;75.82;99006.31;4964874;28;20013;-75
2022/10/03 09:05:44;;;;;;;;;;;;;;;12.01;75.18;99014.63;4935022;29;19965;-76
2022/10/03 09:08:43;;;;;;;;;;;;;;;11.93;75.17;99013.41;4966036;28;20047;-76
2022/10/03 09:11:19;;;;;;;;;;;;;;;11.89;75.89;99006.91;4934580;29;19937;-74
2022/10/03 09:14:16;;;;;;;;;;;;;;;12.00;75.34;99005.66;4946909;28;19930;-77
2022/10/03 09:16:54;;;;;;;;;;;;;;;11.92;74.84;99000.03;4947639;28;19930;-88
2022/10/03 09:19:58;;;;;;;;;;;;;;;11.86;74.10;99012.91;4970080;28;19926;-84
2022/10/03 09:22:36;;;;;;;;;;;;;;;11.88;73.92;99008.00;4944340;28;19933;-84
2022/10/03 09:25:08;;;;;;;;;;;;;;;11.85;74.15;99011.31;4945753;28;20233;-75
2022/10/03 09:27:45;;;;;;;;;;;;;;;11.87;74.28;99019.97;4948239;28;19937;-74
2022/10/03 09:30:42;;;;;;;;;;;;;;;11.87;74.13;99019.19;4945008;28;20448;-73
2022/10/03 09:33:27;;;;;;;;;;;;;;;11.83;73.56;99015.44;4935256;28;19926;-74
2022/10/03 09:36:39;;;;;;;;;;;;;;;11.85;73.59;99022.19;4950193;28;19934;-74
2022/10/03 09:39:18;;;;;;;;;;;;;;;11.90;74.12;99016.69;4948595;28;20037;-74
2022/10/03 09:41:57;;;;;;;;;;;;;;;11.83;73.79;99021.69;4920626;29;19930;-74
2022/10/03 09:44:39;;;;;;;;;;;;;;;11.82;73.70;99016.53;4951063;28;20029;-75
2022/10/03 09:47:22;;;;;;;;;;;;;;;11.80;73.76;99014.06;4944387;28;19926;-74
2022/10/03 09:50:20;;;;;;;;;;;;;;;11.83;73.85;99021.69;4929574;29;19931;-74
2022/10/03 09:53:01;;;;;;;;;;;;;;;11.83;73.26;99013.53;4968139;28;19927;-74
2022/10/03 09:55:31;;;;;;;;;;;;;;;11.85;74.08;99014.03;4947164;28;19937;-74
2022/10/03 09:58:26;;;;;;;;;;;;;;;11.98;73.61;99013.28;4948535;28;20369;-74
2022/10/03 10:01:07;;;;;;;;;;;;;;;12.02;73.18;99014.34;4967450;28;19930;-74
2022/10/03 10:03:47;;;;;;;;;;;;;;;12.05;72.74;99010.22;4935845;28;19926;-74
2022/10/03 10:06:30;;;;;;;;;;;;;;;11.98;72.95;99016.00;4954227;28;19926;-73
2022/10/03 10:09:11;;;;;;;;;;;;;;;12.01;73.06;99015.44;4969002;28;19927;-74
2022/10/03 10:11:55;;;;;;;;;;;;;;;12.11;73.38;99016.41;4936515;29;19927;-74
2022/10/03 10:14:35;;;;;;;;;;;;;;;12.29;72.66;99010.13;4959685;28;19945;-74
2022/10/03 10:17:18;;;;;;;;;;;;;;;12.37;71.81;99019.56;4967067;28;19931;-73
2022/10/03 10:19:52;;;;;;;;;;;;;;;12.32;71.42;99009.56;4973611;28;19933;-73
2022/10/03 10:22:35;;;;;;;;;;;;;;;12.42;70.40;99009.41;4959273;28;19926;-74
2022/10/03 10:25:13;;;;;;;;;;;;;;;12.58;69.81;98997.16;4925885;29;19931;-74
2022/10/03 10:28:00;;;;;;;;;;;;;;;12.68;69.75;98995.38;4965928;28;19927;-76
2022/10/03 10:30:53;;;;;;;;;;;;;;;12.76;69.97;99000.94;4968396;28;20088;-75
2022/10/03 10:33:40;;;;;;;;;;;;;;;12.91;68.61;98999.88;4956256;28;19932;-73
2022/10/03 10:36:27;;;;;;;;;;;;;;;12.81;69.14;99000.84;4965415;28;19982;-75
2022/10/03 10:39:14;;;;;;;;;;;;;;;12.80;68.45;98992.97;4952576;28;19977;-74
2022/10/03 10:42:02;;;;;;;;;;;;;;;12.86;68.80;98999.94;4937738;29;20510;-74
2022/10/03 10:44:42;;;;;;;;;;;;;;;13.00;68.76;98998.06;4933384;29;19936;-74
2022/10/03 10:47:12;;;;;;;;;;;;;;;13.00;68.62;99003.53;4948051;28;19927;-74
2022/10/03 10:50:11;;;;;;;;;;;;;;;13.10;67.89;99003.34;4934997;29;19930;-74
2022/10/03 10:52:58;;;;;;;;;;;;;;;12.92;66.04;99003.41;4882960;29;19928;-74
2022/10/03 10:55:40;;;;;;;;;;;;;;;12.98;68.21;99000.28;4945463;28;19934;-74
2022/10/03 10:58:34;;;;;;;;;;;;;;;12.98;67.70;98994.00;4950900;28;20021;-74
2022/10/03 11:01:17;;;;;;;;;;;;;;;13.02;68.19;98995.84;4933503;28;20018;-74
2022/10/03 11:04:03;;;;;;;;;;;;;;;12.88;67.24;98996.91;4963758;28;19938;-74
2022/10/03 11:06:53;;;;;;;;;;;;;;;13.03;67.05;99002.91;4923660;29;19927;-74
2022/10/03 11:09:43;;;;;;;;;;;;;;;13.10;67.44;98991.59;4911460;29;19926;-74
2022/10/03 11:12:45;;;;;;;;;;;;;;;13.13;67.19;98987.47;4920844;28;20021;-74
2022/10/03 11:15:53;;;;;;;;;;;;;;;13.44;64.68;98988.53;4950454;28;19954;-74
2022/10/03 11:18:41;;;;;;;;;;;;;;;13.46;64.25;98994.47;4903303;29;19934;-74
2022/10/03 11:21:42;;;;;;;;;;;;;;;13.41;63.63;98991.84;4896009;29;19935;-74
2022/10/03 11:24:26;;;;;;;;;;;;;;;13.49;64.32;98987.63;4895999;29;20276;-74
2022/10/03 11:27:18;;;;;;;;;;;;;;;13.47;63.23;98990.63;4889210;29;20033;-73
2022/10/03 11:30:09;;;;;;;;;;;;;;;13.44;64.10;98990.44;4904793;29;20030;-74
2022/10/03 11:33:02;;;;;;;;;;;;;;;13.41;63.33;98991.84;4890263;29;19935;-73
2022/10/03 11:35:40;;;;;;;;;;;;;;;13.40;61.48;98990.25;4906999;29;19967;-75
2022/10/03 11:38:11;;;;;;;;;;;;;;;13.36;61.10;98994.69;4877069;29;19927;-75
2022/10/03 11:40:45;;;;;;;;;;;;;;;13.33;61.42;98990.66;4900176;29;19988;-74
2022/10/03 11:43:31;;;;;;;;;;;;;;;13.40;61.46;98987.50;4896972;29;19931;-73
2022/10/03 11:46:05;;;;;;;;;;;;;;;13.35;60.57;98991.16;4891123;29;19966;-74
2022/10/03 11:48:37;;;;;;;;;;;;;;;13.42;61.03;98984.47;4906569;29;19930;-74
2022/10/03 11:51:07;;;;;;;;;;;;;;;13.34;60.92;98981.34;4918156;29;19938;-74
2022/10/03 11:53:38;;;;;;;;;;;;;;;13.47;60.93;98990.63;4964074;28;19981;-74
2022/10/03 11:56:11;;;;;;;;;;;;;;;13.34;60.55;98986.81;4968636;28;19926;-74
2022/10/03 11:58:43;;;;;;;;;;;;;;;13.33;60.88;98995.31;4950743;29;19927;-74
2022/10/03 12:01:22;;;;;;;;;;;;;;;13.23;60.63;98992.78;4964767;28;19930;-74
2022/10/03 12:03:55;;;;;;;;;;;;;;;13.19;60.95;98991.72;4950068;28;19927;-74
2022/10/03 12:09:23;;;;;;;;;;;;;;;13.13;60.64;98990.19;4965421;28;19930;-74
2022/10/03 12:11:53;;;;;;;;;;;;;;;13.06;61.00;98985.94;4936334;29;19934;-74
2022/10/03 12:14:26;;;;;;;;;;;;;;;13.18;61.96;98984.66;4942241;28;20342;-74
2022/10/03 12:17:02;;;;;;;;;;;;;;;13.22;61.90;98977.50;4939723;29;20362;-74
2022/10/03 12:19:31;;;;;;;;;;;;;;;13.31;61.81;98981.13;4960368;28;19926;-74
2022/10/03 12:22:01;;;;;;;;;;;;;;;13.52;62.27;98979.63;4947408;29;20378;-74
2022/10/03 12:24:30;;;;;;;;;;;;;;;13.59;60.33;98976.50;4951862;28;19926;-74
2022/10/03 12:27:00;;;;;;;;;;;;;;;13.53;58.85;98978.53;4923399;29;19981;-74
2022/10/03 12:29:31;;;;;;;;;;;;;;;13.50;58.83;98968.19;4953136;28;19931;-74
2022/10/03 12:32:15;;;;;;;;;;;;;;;13.50;58.72;98976.38;4966274;28;19965;-74
2022/10/03 12:34:49;;;;;;;;;;;;;;;13.45;59.04;98981.94;4964886;28;19941;-74
2022/10/03 12:37:33;;;;;;;;;;;;;;;13.44;58.67;98974.88;4978457;28;19926;-74
2022/10/03 12:40:06;;;;;;;;;;;;;;;13.48;58.87;98975.91;4948130;28;20048;-74
2022/10/03 12:42:35;;;;;;;;;;;;;;;13.41;58.86;98964.56;4930929;28;19931;-74
2022/10/03 12:45:04;;;;;;;;;;;;;;;13.54;58.48;98962.94;4938579;29;19931;-74
2022/10/03 12:50:32;;;;;;;;;;;;;;;13.66;58.03;98956.97;4955357;28;19962;-74
2022/10/03 12:53:05;;;;;;;;;;;;;;;13.56;57.63;98961.50;4953231;28;19926;-74
2022/10/03 12:55:33;;;;;;;;;;;;;;;13.52;56.48;98948.78;4962977;28;19995;-74
2022/10/03 12:58:27;;;;;;;;;;;;;;;13.61;57.48;98953.22;4938301;29;20390;-73
2022/10/03 13:00:58;;;;;;;;;;;;;;;13.58;56.88;98953.00;4970178;28;20601;-74
2022/10/03 13:03:30;;;;;;;;;;;;;;;13.53;56.64;98948.50;4956142;28;19930;-74
2022/10/03 13:06:20;;;;;;;;;;;;;;;13.47;55.85;98941.50;4954749;28;20016;-74
2022/10/03 13:09:06;;;;;;;;;;;;;;;13.54;56.66;98947.38;4974164;28;19927;-74
2022/10/03 13:11:37;;;;;;;;;;;;;;;13.48;57.77;98948.59;4936987;29;19926;-74
2022/10/03 13:14:10;;;;;;;;;;;;;;;13.47;56.29;98940.69;4930954;29;19965;-74
2022/10/03 13:16:39;;;;;;;;;;;;;;;13.52;56.10;98946.84;4968011;28;20393;-74
2022/10/03 13:19:11;;;;;;;;;;;;;;;13.50;56.55;98940.09;4968385;28;19934;-74
2022/10/03 13:22:02;;;;;;;;;;;;;;;13.50;56.24;98937.38;4964674;28;19927;-74
2022/10/03 13:24:31;;;;;;;;;;;;;;;13.63;57.52;98940.09;4951875;28;20013;-75
2022/10/03 13:27:05;;;;;;;;;;;;;;;13.57;55.85;98935.81;4941893;28;19930;-74
2022/10/03 13:29:37;;;;;;;;;;;;;;;13.54;56.53;98932.91;4965821;28;19938;-74
2022/10/03 13:32:11;;;;;;;;;;;;;;;13.58;56.60;98933.91;4943262;29;19936;-75
2022/10/03 13:37:56;;;;;;;;;;;;;;;13.52;54.91;98932.41;4935426;29;19958;-75
2022/10/03 13:40:24;;;;;;;;;;;;;;;13.57;55.92;98935.81;4927114;29;20394;-75
2022/10/03 13:42:53;;;;;;;;;;;;;;;13.62;56.35;98938.44;4936177;29;19926;-74
2022/10/03 13:45:22;;;;;;;;;;;;;;;13.45;56.43;98932.00;4945767;28;19926;-74
2022/10/03 13:47:52;;;;;;;;;;;;;;;13.36;58.27;98934.63;4951881;28;19974;-74
2022/10/03 13:50:24;;;;;;;;;;;;;;;13.31;57.17;98927.34;4934851;29;20763;-74
2022/10/03 13:52:56;;;;;;;;;;;;;;;13.33;58.08;98930.59;4968331;28;19965;-74
2022/10/03 13:55:32;;;;;;;;;;;;;;;13.18;58.19;98938.25;4939642;29;19927;-74
2022/10/03 13:58:23;;;;;;;;;;;;;;;13.20;59.05;98933.28;4949681;29;20448;-74
2022/10/03 14:01:06;;;;;;;;;;;;;;;13.16;58.52;98924.94;4933200;28;19926;-74
2022/10/03 14:03:36;;;;;;;;;;;;;;;13.18;59.13;98930.88;4951694;28;19989;-74
2022/10/03 14:06:12;;;;;;;;;;;;;;;13.28;59.13;98924.44;4951759;28;19962;-75
2022/10/03 14:08:52;;;;;;;;;;;;;;;13.40;58.59;98923.94;4967332;28;19926;-74
2022/10/03 14:11:24;;;;;;;;;;;;;;;13.43;58.41;98929.59;4967431;28;20017;-74
2022/10/03 14:14:01;;;;;;;;;;;;;;;13.33;58.36;98932.53;4930782;28;19953;-74
2022/10/03 14:16:33;;;;;;;;;;;;;;;13.30;58.66;98930.41;4926240;29;19926;-74
2022/10/03 14:19:04;;;;;;;;;;;;;;;13.28;59.48;98927.97;4965862;28;20029;-74
2022/10/03 14:21:49;;;;;;;;;;;;;;;13.20;58.71;98927.84;4935552;29;20274;-74
2022/10/03 14:24:37;;;;;;;;;;;;;;;13.27;58.64;98931.03;4931512;29;20437;-74
2022/10/03 14:27:09;;;;;;;;;;;;;;;13.23;59.53;98930.00;4912187;29;19935;-74